Time;durP1;ratioP1;P1;durP2;ratioP2;P2;SDS_P1;SDS_P2;PMS_P1;PMS_P2;Temp;Humidity;BMP_temperature;BMP_pressure;BME280_temperature;BME280_humidity;BME280_pressure;Samples;Min_cycle;Max_cycle;Signal;HPM_P1;HPM_P2
2024/02/09 00:00:57;;;;;;;5.50;4.15;;;5.20;99.90;;;;;;5108897;28;20039;-47
2024/02/09 00:03:26;;;;;;;4.45;3.42;;;5.20;99.90;;;;;;5108215;28;20028;-48
2024/02/09 00:05:52;;;;;;;5.88;4.32;;;5.10;99.90;;;;;;5108864;28;20020;-49
2024/02/09 00:08:21;;;;;;;7.35;4.30;;;5.10;99.90;;;;;;5108855;28;20028;-49
2024/02/09 00:10:47;;;;;;;5.53;3.80;;;5.20;99.90;;;;;;5108479;28;20032;-47
2024/02/09 00:13:19;;;;;;;5.63;4.25;;;5.20;99.90;;;;;;5107490;28;20077;-48
2024/02/09 00:15:46;;;;;;;5.55;4.20;;;5.20;99.90;;;;;;5108756;28;20043;-47
2024/02/09 00:18:18;;;;;;;6.75;4.38;;;5.20;99.90;;;;;;5108432;28;20190;-49
2024/02/09 00:20:45;;;;;;;5.75;4.60;;;5.20;99.90;;;;;;5108511;28;20213;-48
2024/02/09 00:23:11;;;;;;;4.78;3.70;;;5.20;99.90;;;;;;5108283;28;20034;-47
2024/02/09 00:25:37;;;;;;;5.45;4.15;;;5.10;99.90;;;;;;5108350;28;20036;-47
2024/02/09 00:28:03;;;;;;;5.75;4.50;;;5.10;99.90;;;;;;5107350;28;20039;-48
2024/02/09 00:30:29;;;;;;;5.85;4.78;;;5.10;99.90;;;;;;5107330;28;20016;-48
2024/02/09 00:32:58;;;;;;;5.95;4.55;;;5.10;99.90;;;;;;5108475;28;20040;-47
2024/02/09 00:35:27;;;;;;;6.75;4.75;;;5.10;99.90;;;;;;5108120;28;20073;-48
2024/02/09 00:37:55;;;;;;;6.68;5.15;;;5.00;99.90;;;;;;5108186;28;20289;-48
2024/02/09 00:40:25;;;;;;;6.07;4.35;;;5.00;99.90;;;;;;5108160;28;20032;-46
2024/02/09 00:42:51;;;;;;;7.78;5.35;;;5.00;99.90;;;;;;5107890;28;20083;-47
2024/02/09 00:45:18;;;;;;;6.25;5.28;;;5.00;99.90;;;;;;5107924;28;20053;-47
2024/02/09 00:47:46;;;;;;;7.35;4.55;;;4.90;99.90;;;;;;5108030;28;20042;-47
2024/02/09 00:50:11;;;;;;;6.70;5.03;;;4.90;99.90;;;;;;5108247;28;20047;-46
2024/02/09 00:52:37;;;;;;;6.55;4.90;;;4.90;99.90;;;;;;5107521;28;20047;-46
2024/02/09 00:55:03;;;;;;;7.38;4.65;;;4.90;99.90;;;;;;5107656;28;20101;-46
2024/02/09 00:57:28;;;;;;;7.65;4.60;;;4.90;99.90;;;;;;5107786;28;20324;-49
2024/02/09 00:59:56;;;;;;;6.03;4.22;;;4.90;99.90;;;;;;5107768;28;20028;-46
2024/02/09 01:02:24;;;;;;;5.95;4.22;;;4.90;99.90;;;;;;5107777;28;20079;-47
2024/02/09 01:04:50;;;;;;;7.90;4.88;;;4.90;99.90;;;;;;5107502;28;20158;-48
2024/02/09 01:07:16;;;;;;;6.15;4.63;;;4.90;99.90;;;;;;5107225;28;20028;-46
2024/02/09 01:09:42;;;;;;;8.05;4.65;;;4.90;99.90;;;;;;5107175;28;20111;-46
2024/02/09 02:45:00;;;;;;;5.95;3.40;;;5.20;99.90;;;;;;5105782;28;20048;-47
2024/02/09 02:47:26;;;;;;;5.72;3.47;;;5.20;99.90;;;;;;5105798;28;20211;-48
2024/02/09 03:06:17;;;;;;;7.18;3.92;;;5.20;99.90;;;;;;5105482;28;20076;-48
2024/02/09 03:08:43;;;;;;;5.18;3.53;;;5.20;99.90;;;;;;5105341;28;20028;-49
2024/02/09 03:11:08;;;;;;;4.63;3.45;;;5.20;99.90;;;;;;5104758;28;20091;-48
2024/02/09 03:13:34;;;;;;;4.25;3.53;;;5.20;99.90;;;;;;5105357;28;20254;-49
2024/02/09 03:16:00;;;;;;;5.38;3.38;;;5.20;99.90;;;;;;5103990;28;20365;-47
2024/02/09 03:18:26;;;;;;;5.43;3.25;;;5.20;99.90;;;;;;5105161;28;20099;-49
2024/02/09 03:20:57;;;;;;;6.90;3.67;;;5.20;99.90;;;;;;5105002;28;20043;-46
2024/02/09 03:23:22;;;;;;;5.63;2.80;;;5.20;99.90;;;;;;5105231;28;20035;-46
2024/02/09 03:25:48;;;;;;;5.82;3.42;;;5.20;99.90;;;;;;5105238;28;20020;-45
2024/02/09 03:28:14;;;;;;;7.53;3.92;;;5.20;99.90;;;;;;5104987;28;20042;-46
2024/02/09 03:30:40;;;;;;;4.82;3.05;;;5.30;99.90;;;;;;5104155;28;20032;-48
2024/02/09 03:33:06;;;;;;;4.93;3.10;;;5.20;99.90;;;;;;5104904;28;20034;-49
2024/02/09 03:35:33;;;;;;;5.40;3.22;;;5.20;99.90;;;;;;5105038;28;20308;-48
2024/02/09 03:37:59;;;;;;;4.22;3.35;;;5.20;99.90;;;;;;5105041;28;20020;-49
2024/02/09 03:40:24;;;;;;;4.30;2.90;;;5.20;99.90;;;;;;5105146;28;20031;-48
2024/02/09 03:42:50;;;;;;;5.00;2.92;;;5.20;99.90;;;;;;5105018;28;20032;-49
2024/02/09 03:45:16;;;;;;;3.33;2.15;;;5.20;99.90;;;;;;5104894;28;20077;-49
2024/02/09 03:47:41;;;;;;;3.30;2.30;;;5.20;99.90;;;;;;5104971;28;20040;-48
2024/02/09 03:50:08;;;;;;;6.18;2.63;;;5.20;99.90;;;;;;5103975;28;20047;-48
2024/02/09 03:52:33;;;;;;;5.57;2.10;;;5.20;99.90;;;;;;5104850;28;20155;-48
2024/02/09 03:54:59;;;;;;;5.97;2.58;;;5.20;99.90;;;;;;5103705;28;20024;-45
2024/02/09 03:57:26;;;;;;;3.65;2.20;;;5.20;99.90;;;;;;5104727;28;20036;-48
2024/02/09 03:59:52;;;;;;;5.57;2.00;;;5.10;99.90;;;;;;5103900;28;20020;-45
2024/02/09 04:02:18;;;;;;;3.90;1.98;;;5.10;99.90;;;;;;5104903;28;20063;-48
2024/02/09 04:04:44;;;;;;;3.17;2.00;;;5.10;99.90;;;;;;5104462;28;20036;-48
2024/02/09 04:07:09;;;;;;;3.95;2.00;;;5.10;99.90;;;;;;5104617;28;20024;-48
2024/02/09 04:09:35;;;;;;;3.53;2.10;;;5.10;99.90;;;;;;5104819;28;20103;-47
2024/02/09 04:12:02;;;;;;;2.58;1.77;;;5.10;99.90;;;;;;5104859;28;20036;-45
2024/02/09 04:14:27;;;;;;;3.38;1.80;;;5.10;99.90;;;;;;5104776;28;20053;-45
2024/02/09 04:16:54;;;;;;;2.97;1.90;;;5.10;99.90;;;;;;5104487;28;20047;-46
2024/02/09 04:19:22;;;;;;;4.45;2.13;;;5.10;99.90;;;;;;5104715;28;20030;-46
2024/02/09 04:21:47;;;;;;;3.15;2.05;;;5.20;99.90;;;;;;5104607;28;20024;-47
2024/02/09 04:24:18;;;;;;;3.65;2.10;;;5.20;99.90;;;;;;5104746;28;20039;-45
2024/02/09 04:26:44;;;;;;;5.20;2.10;;;5.20;99.90;;;;;;5104749;28;20089;-48
2024/02/09 04:29:11;;;;;;;4.00;2.20;;;5.20;99.90;;;;;;5104567;28;20088;-48
2024/02/09 04:31:40;;;;;;;3.67;2.00;;;5.20;99.90;;;;;;5104591;28;20040;-47
2024/02/09 04:34:06;;;;;;;3.35;1.60;;;5.20;99.90;;;;;;5104540;28;20097;-49
2024/02/09 04:36:33;;;;;;;3.67;1.80;;;5.20;99.90;;;;;;5104500;28;20277;-46
2024/02/09 04:38:59;;;;;;;2.65;1.75;;;5.20;99.90;;;;;;5104658;28;20031;-48
2024/02/09 04:41:25;;;;;;;3.50;2.00;;;5.20;99.90;;;;;;5106127;28;20028;-48
2024/02/09 04:43:52;;;;;;;3.13;1.67;;;5.20;99.90;;;;;;5108100;28;20083;-47
2024/02/09 04:46:24;;;;;;;3.33;1.70;;;5.20;99.90;;;;;;5108058;28;20046;-46
2024/02/09 04:48:53;;;;;;;3.80;1.98;;;5.20;99.90;;;;;;5106918;28;20024;-48
2024/02/09 04:51:18;;;;;;;3.30;1.98;;;5.20;99.90;;;;;;5108177;28;20027;-48
2024/02/09 04:53:44;;;;;;;3.60;1.77;;;5.20;99.90;;;;;;5107475;28;20020;-47
2024/02/09 04:56:10;;;;;;;2.38;1.60;;;5.20;99.90;;;;;;5106575;28;20028;-47
2024/02/09 04:58:36;;;;;;;4.90;1.92;;;5.20;99.90;;;;;;5107827;28;20040;-46
2024/02/09 05:01:02;;;;;;;2.95;1.50;;;5.20;99.90;;;;;;5107904;28;20024;-46
2024/02/09 05:03:28;;;;;;;2.30;1.45;;;5.20;99.90;;;;;;5107636;28;20212;-45
2024/02/09 05:05:54;;;;;;;2.75;1.60;;;5.20;99.90;;;;;;5107802;28;20048;-46
2024/02/09 05:08:20;;;;;;;2.63;1.50;;;5.20;99.90;;;;;;5107791;28;20189;-46
2024/02/09 05:10:46;;;;;;;2.58;1.70;;;5.20;99.90;;;;;;5107371;28;20054;-46
2024/02/09 05:13:12;;;;;;;3.13;1.40;;;5.20;99.90;;;;;;5106323;28;20157;-45
2024/02/09 05:15:38;;;;;;;1.92;1.27;;;5.20;99.90;;;;;;5107410;28;20177;-46
2024/02/09 05:18:04;;;;;;;3.88;1.52;;;5.20;99.90;;;;;;5107479;28;20044;-47
2024/02/09 05:20:29;;;;;;;1.95;1.27;;;5.30;99.90;;;;;;5108096;28;20185;-48
2024/02/09 05:22:57;;;;;;;2.03;1.27;;;5.30;99.90;;;;;;5106198;28;20043;-46
2024/02/09 05:25:23;;;;;;;3.20;1.05;;;5.30;99.90;;;;;;5106983;28;20054;-45
2024/02/09 05:27:49;;;;;;;1.85;1.05;;;5.30;99.90;;;;;;5106991;28;20028;-46
2024/02/09 05:30:15;;;;;;;1.60;1.00;;;5.30;99.90;;;;;;5107369;28;20062;-48
2024/02/09 05:32:41;;;;;;;2.53;1.60;;;5.30;99.90;;;;;;5107313;28;20155;-47
2024/02/09 05:35:10;;;;;;;2.72;1.25;;;5.30;99.90;;;;;;5107070;28;20039;-49
2024/02/09 05:37:35;;;;;;;3.47;1.23;;;5.30;99.90;;;;;;5106854;28;20087;-48
2024/02/09 05:40:01;;;;;;;3.25;1.17;;;5.30;99.90;;;;;;5107089;28;20032;-47
2024/02/09 05:42:27;;;;;;;1.10;0.90;;;5.40;99.90;;;;;;5106016;28;20020;-45
2024/02/09 05:44:52;;;;;;;1.63;1.00;;;5.30;99.90;;;;;;5106910;28;20235;-47
2024/02/09 05:47:18;;;;;;;3.10;1.23;;;5.40;99.90;;;;;;5107087;28;20154;-47
2024/02/09 05:49:44;;;;;;;4.13;1.30;;;5.40;99.90;;;;;;5106836;28;20087;-48
2024/02/09 05:52:11;;;;;;;1.55;0.85;;;5.40;99.90;;;;;;5106678;28;20023;-46
2024/02/09 05:54:36;;;;;;;2.03;0.90;;;5.40;99.90;;;;;;5106952;28;20040;-47
2024/02/09 05:57:02;;;;;;;2.60;1.13;;;5.40;99.90;;;;;;5105672;28;20058;-48
2024/02/09 05:59:28;;;;;;;2.83;1.00;;;5.40;99.90;;;;;;5106286;28;20065;-47
2024/02/09 06:01:54;;;;;;;2.13;1.00;;;5.40;99.90;;;;;;5106644;28;20085;-48
2024/02/09 06:04:21;;;;;;;2.70;1.00;;;5.40;99.90;;;;;;5106621;28;20095;-46
2024/02/09 06:06:47;;;;;;;2.47;1.05;;;5.40;99.90;;;;;;5106678;28;20058;-45
2024/02/09 06:09:13;;;;;;;1.70;1.10;;;5.40;99.90;;;;;;5106578;28;20032;-49
2024/02/09 06:11:38;;;;;;;3.45;1.30;;;5.40;99.90;;;;;;5106477;28;20160;-45
2024/02/09 06:14:04;;;;;;;4.18;1.10;;;5.40;99.90;;;;;;5106526;28;20027;-45
2024/02/09 06:16:31;;;;;;;2.10;1.00;;;5.40;99.90;;;;;;5106094;28;20067;-46
2024/02/09 06:18:57;;;;;;;2.50;1.10;;;5.40;99.90;;;;;;5106004;28;20023;-46
2024/02/09 06:21:22;;;;;;;3.67;1.17;;;5.40;99.90;;;;;;5106012;28;20038;-46
2024/02/09 06:23:49;;;;;;;1.60;1.00;;;5.40;99.90;;;;;;5106551;28;20031;-46
2024/02/09 06:26:18;;;;;;;1.35;0.90;;;5.40;99.90;;;;;;5106139;28;20046;-46
2024/02/09 06:28:46;;;;;;;3.15;0.90;;;5.40;99.90;;;;;;5104852;28;20038;-48
2024/02/09 06:31:26;;;;;;;1.77;1.10;;;5.40;99.90;;;;;;5105720;28;20232;-46
2024/02/09 06:33:54;;;;;;;2.70;1.10;;;5.40;99.90;;;;;;5105556;28;20286;-47
2024/02/09 06:36:21;;;;;;;1.95;1.23;;;5.50;99.90;;;;;;5105002;28;20032;-47
2024/02/09 06:38:48;;;;;;;2.78;1.40;;;5.40;99.90;;;;;;5105826;28;20020;-48
2024/02/09 06:41:13;;;;;;;8.25;2.25;;;5.50;99.90;;;;;;5105709;28;20277;-49
2024/02/09 06:43:39;;;;;;;2.70;1.20;;;5.50;99.90;;;;;;5105719;28;20069;-47
2024/02/09 06:46:05;;;;;;;3.53;3.22;;;5.50;99.90;;;;;;5105741;28;20028;-45
2024/02/09 06:48:30;;;;;;;4.85;1.27;;;5.50;99.90;;;;;;5105820;28;20190;-48
2024/02/09 06:50:58;;;;;;;3.97;3.22;;;5.50;99.90;;;;;;5105793;28;20269;-46
2024/02/09 06:53:24;;;;;;;2.65;1.40;;;5.50;99.90;;;;;;5105579;28;20032;-47
2024/02/09 06:55:53;;;;;;;3.10;1.67;;;5.50;99.90;;;;;;5104493;28;20081;-46
2024/02/09 06:58:24;;;;;;;2.80;1.40;;;5.50;99.90;;;;;;5105572;28;20032;-46
2024/02/09 07:00:53;;;;;;;1.60;1.20;;;5.50;99.90;;;;;;5105309;28;20286;-45
2024/02/09 07:03:19;;;;;;;3.70;1.90;;;5.50;99.90;;;;;;5104922;28;20059;-47
2024/02/09 07:05:48;;;;;;;2.90;1.50;;;5.50;99.90;;;;;;5104444;28;20238;-49
2024/02/09 07:08:16;;;;;;;2.13;1.38;;;5.60;99.90;;;;;;5104607;28;20019;-46
2024/02/09 07:10:42;;;;;;;3.72;1.50;;;5.60;99.90;;;;;;5105157;28;20314;-49
2024/02/09 07:13:07;;;;;;;3.55;1.40;;;5.60;99.90;;;;;;5105430;28;20083;-49
2024/02/09 07:15:33;;;;;;;2.67;2.00;;;5.60;99.90;;;;;;5105212;28;20097;-46
2024/02/09 07:18:00;;;;;;;4.30;1.50;;;5.60;99.90;;;;;;5105181;28;20048;-46
2024/02/09 07:20:25;;;;;;;3.33;1.67;;;5.60;99.90;;;;;;5104004;28;20028;-45
2024/02/09 07:22:51;;;;;;;3.80;1.48;;;5.60;99.90;;;;;;5105281;28;20056;-49
2024/02/09 07:25:17;;;;;;;5.18;2.00;;;5.70;99.90;;;;;;5105200;28;20039;-47
2024/02/09 07:27:42;;;;;;;5.40;2.30;;;5.70;99.90;;;;;;5087222;28;20051;-49
2024/02/09 07:30:09;;;;;;;5.63;1.80;;;5.70;99.90;;;;;;5105339;28;20023;-50
2024/02/09 07:32:35;;;;;;;4.03;1.58;;;5.70;99.90;;;;;;5105209;28;20093;-48
2024/02/09 07:35:01;;;;;;;4.13;1.65;;;5.70;99.90;;;;;;5105162;28;20262;-46
2024/02/09 07:37:26;;;;;;;4.72;2.00;;;5.70;99.90;;;;;;5103741;28;20032;-50
2024/02/09 07:39:52;;;;;;;3.80;1.70;;;5.70;99.90;;;;;;5087181;28;20281;-48
2024/02/09 07:42:20;;;;;;;3.63;2.00;;;5.80;99.90;;;;;;5105020;28;20073;-46
2024/02/09 07:44:45;;;;;;;4.55;2.05;;;5.80;99.90;;;;;;5105068;28;20052;-49
2024/02/09 07:47:11;;;;;;;4.90;2.28;;;5.80;99.90;;;;;;5104662;28;20028;-50
2024/02/09 07:49:37;;;;;;;5.18;1.90;;;5.80;99.90;;;;;;5104542;28;20024;-47
2024/02/09 07:52:03;;;;;;;7.97;4.25;;;5.80;99.90;;;;;;5104300;28;20024;-46
2024/02/09 07:54:31;;;;;;;5.55;2.45;;;5.80;99.90;;;;;;5105032;28;20194;-49
2024/02/09 07:56:57;;;;;;;4.95;2.38;;;5.80;99.90;;;;;;5104381;28;20032;-49
2024/02/09 07:59:26;;;;;;;5.00;2.78;;;5.80;99.90;;;;;;5104635;28;20024;-48
2024/02/09 08:01:52;;;;;;;8.82;2.47;;;5.80;99.90;;;;;;5104738;28;20054;-49
2024/02/09 08:04:20;;;;;;;8.75;2.80;;;5.90;99.90;;;;;;5103649;28;20077;-49
2024/02/09 08:06:47;;;;;;;7.95;2.58;;;5.90;99.90;;;;;;5104012;28;20042;-50
2024/02/09 08:09:13;;;;;;;6.35;2.72;;;5.90;99.90;;;;;;5086360;28;20055;-46
2024/02/09 08:11:42;;;;;;;14.05;4.70;;;5.90;99.90;;;;;;5103250;28;20247;-49
2024/02/09 08:14:08;;;;;;;9.20;3.78;;;5.90;99.90;;;;;;5104627;28;20016;-50
2024/02/09 08:16:33;;;;;;;5.78;2.67;;;6.00;99.90;;;;;;5106623;28;20060;-49
2024/02/09 08:18:59;;;;;;;8.20;2.88;;;6.00;99.90;;;;;;5107399;28;20069;-47
2024/02/09 08:21:25;;;;;;;6.10;2.83;;;6.00;99.90;;;;;;5107324;28;20039;-47
2024/02/09 08:23:51;;;;;;;6.10;3.03;;;6.00;99.90;;;;;;5108165;28;20032;-48
2024/02/09 08:26:16;;;;;;;5.30;3.13;;;6.00;99.90;;;;;;5108434;28;20048;-50
2024/02/09 08:28:47;;;;;;;6.70;3.35;;;6.10;99.90;;;;;;5108437;28;20055;-49
2024/02/09 08:31:18;;;;;;;15.32;4.20;;;6.10;99.90;;;;;;5108504;28;20036;-51
2024/02/09 08:33:44;;;;;;;9.15;3.60;;;6.10;99.90;;;;;;5108348;28;20361;-51
2024/02/09 08:36:13;;;;;;;5.53;2.72;;;6.10;99.90;;;;;;5107236;28;20055;-50
2024/02/09 08:38:38;;;;;;;7.55;2.67;;;6.20;99.90;;;;;;5107319;28;20035;-47
2024/02/09 08:41:07;;;;;;;9.27;3.83;;;6.20;99.90;;;;;;5107825;28;20027;-49
2024/02/09 08:43:33;;;;;;;9.95;3.33;;;6.20;99.90;;;;;;5107844;28;20282;-48
2024/02/09 08:45:59;;;;;;;12.57;4.03;;;6.20;99.90;;;;;;5107748;28;20079;-47
2024/02/09 08:48:25;;;;;;;8.10;2.90;;;6.30;99.90;;;;;;5107932;28;20286;-47
2024/02/09 08:50:51;;;;;;;7.72;3.63;;;6.30;99.90;;;;;;5106615;28;20032;-48
2024/02/09 08:53:16;;;;;;;9.23;3.00;;;6.30;99.90;;;;;;5107780;28;20032;-48
2024/02/09 08:55:42;;;;;;;10.05;3.67;;;6.30;99.90;;;;;;5107467;28;20289;-47
2024/02/09 08:58:08;;;;;;;6.43;3.15;;;6.30;99.90;;;;;;5107669;28;20327;-48
2024/02/09 09:00:33;;;;;;;9.73;3.70;;;6.30;99.90;;;;;;5107769;28;20081;-49
2024/02/09 09:03:00;;;;;;;9.98;4.07;;;6.40;99.90;;;;;;5107419;28;20012;-47
2024/02/09 09:05:27;;;;;;;9.18;4.05;;;6.40;99.90;;;;;;5107408;28;20097;-47
2024/02/09 09:07:54;;;;;;;9.98;3.58;;;6.40;99.90;;;;;;5107179;28;20024;-47
2024/02/09 09:10:19;;;;;;;7.90;3.67;;;6.30;99.90;;;;;;5107535;28;20238;-47
2024/02/09 09:12:46;;;;;;;9.32;3.60;;;6.40;99.90;;;;;;5107531;28;20055;-50
2024/02/09 09:15:12;;;;;;;8.05;3.75;;;6.50;99.90;;;;;;5107331;28;20145;-50
2024/02/09 09:17:38;;;;;;;15.05;5.20;;;6.50;99.90;;;;;;5107001;28;20040;-50
2024/02/09 09:20:05;;;;;;;11.90;4.78;;;6.50;99.90;;;;;;5107399;28;20300;-47
2024/02/09 09:22:31;;;;;;;11.40;4.22;;;6.50;99.90;;;;;;5107424;28;20307;-48
2024/02/09 09:24:57;;;;;;;11.90;4.95;;;6.60;99.90;;;;;;5107109;28;20028;-50
2024/02/09 09:27:23;;;;;;;9.95;3.75;;;6.60;99.90;;;;;;5106317;28;20235;-50
2024/02/09 09:29:52;;;;;;;8.40;4.53;;;6.60;99.90;;;;;;5107100;28;20178;-50
2024/02/09 09:32:20;;;;;;;11.73;4.60;;;6.60;99.90;;;;;;5107177;28;20024;-48
2024/02/09 09:34:46;;;;;;;10.07;3.85;;;6.70;99.90;;;;;;5105923;28;20103;-49
2024/02/09 09:37:11;;;;;;;8.98;4.20;;;6.70;99.90;;;;;;5106789;28;20098;-49
2024/02/09 09:39:37;;;;;;;12.10;4.03;;;6.70;99.90;;;;;;5106464;28;20073;-49
2024/02/09 09:42:03;;;;;;;14.90;5.30;;;6.70;99.90;;;;;;5105769;28;20365;-50
2024/02/09 09:44:29;;;;;;;8.98;4.90;;;6.80;99.90;;;;;;5105543;28;20066;-48
2024/02/09 09:46:57;;;;;;;11.50;5.82;;;6.80;99.90;;;;;;5106024;28;20039;-48
2024/02/09 09:49:22;;;;;;;11.27;5.25;;;6.80;99.90;;;;;;5105678;28;20105;-47
2024/02/09 09:51:50;;;;;;;13.57;5.10;;;6.80;99.90;;;;;;5106721;28;20090;-51
2024/02/09 09:54:20;;;;;;;17.42;5.65;;;6.80;99.90;;;;;;5106614;28;20062;-47
2024/02/09 09:56:45;;;;;;;11.43;4.82;;;6.80;99.90;;;;;;5105213;28;20055;-49
2024/02/09 09:59:11;;;;;;;12.27;5.10;;;6.80;99.90;;;;;;5105768;28;20274;-48
2024/02/09 10:01:38;;;;;;;7.57;3.95;;;6.90;99.90;;;;;;5105394;28;20024;-48
2024/02/09 10:04:04;;;;;;;11.55;5.45;;;6.90;99.90;;;;;;5105519;28;20193;-49
2024/02/09 10:06:30;;;;;;;13.65;5.43;;;6.90;99.90;;;;;;5106369;28;20028;-50
2024/02/09 10:08:55;;;;;;;13.23;5.85;;;7.00;99.90;;;;;;5106289;28;20074;-50
2024/02/09 10:11:21;;;;;;;13.93;5.47;;;7.10;99.90;;;;;;5106092;28;20024;-50
2024/02/09 10:13:51;;;;;;;11.98;5.00;;;7.20;99.90;;;;;;5105238;28;20283;-49
2024/02/09 10:16:18;;;;;;;12.07;5.32;;;7.20;99.90;;;;;;5104585;28;20043;-50
2024/02/09 10:18:43;;;;;;;11.80;4.68;;;7.30;99.90;;;;;;5105975;28;20193;-50
2024/02/09 10:21:11;;;;;;;15.05;5.10;;;7.30;99.90;;;;;;5106100;28;20099;-51
2024/02/09 10:23:37;;;;;;;18.08;7.43;;;7.40;99.90;;;;;;5105052;28;20024;-50
2024/02/09 10:26:05;;;;;;;25.00;9.00;;;7.40;99.90;;;;;;5104924;28;20028;-48
2024/02/09 10:28:30;;;;;;;23.38;9.20;;;7.30;99.90;;;;;;5106050;28;20032;-50
2024/02/09 10:30:59;;;;;;;23.50;9.07;;;7.30;99.90;;;;;;5104895;28;20155;-47
2024/02/09 10:33:25;;;;;;;15.10;6.15;;;7.40;99.90;;;;;;5104925;28;20020;-50
2024/02/09 10:35:57;;;;;;;18.17;8.98;;;7.40;99.90;;;;;;5105742;28;20123;-51
2024/02/09 10:38:31;;;;;;;15.00;6.95;;;7.50;99.90;;;;;;5104743;28;20035;-51
2024/02/09 10:40:56;;;;;;;11.88;5.38;;;7.60;99.90;;;;;;5088366;28;20043;-49
2024/02/09 10:43:23;;;;;;;13.40;6.80;;;7.60;99.90;;;;;;5104671;28;20031;-51
2024/02/09 10:45:50;;;;;;;12.15;5.05;;;7.60;99.90;;;;;;5105650;28;20024;-49
2024/02/09 10:48:17;;;;;;;9.70;4.18;;;7.70;99.90;;;;;;5105039;28;20038;-47
2024/02/09 10:50:43;;;;;;;10.25;4.57;;;7.60;99.90;;;;;;5104350;28;20032;-48
2024/02/09 10:53:12;;;;;;;8.75;4.95;;;7.50;99.90;;;;;;5104466;28;20020;-50
2024/02/09 10:55:39;;;;;;;12.00;5.32;;;7.60;99.90;;;;;;5104625;28;20036;-49
2024/02/09 10:58:04;;;;;;;12.60;5.55;;;7.70;99.90;;;;;;5104556;28;20095;-50
2024/02/09 11:00:31;;;;;;;9.10;4.90;;;7.70;99.90;;;;;;5104423;28;20038;-50
2024/02/09 11:02:57;;;;;;;13.02;4.65;;;7.80;99.90;;;;;;5105509;28;20047;-50
2024/02/09 11:05:23;;;;;;;12.88;5.00;;;7.90;99.90;;;;;;5105034;28;20297;-50
2024/02/09 11:07:49;;;;;;;10.65;4.82;;;8.00;99.90;;;;;;5104084;28;20066;-50
2024/02/09 11:10:16;;;;;;;10.40;4.78;;;8.00;99.90;;;;;;5105329;28;20031;-50
2024/02/09 11:12:42;;;;;;;9.02;4.70;;;8.10;99.90;;;;;;5105071;28;20024;-50
2024/02/09 11:15:14;;;;;;;11.93;5.05;;;8.10;99.90;;;;;;5105188;28;20298;-50
2024/02/09 11:17:46;;;;;;;8.05;4.43;;;8.10;99.90;;;;;;5104556;28;20132;-49
2024/02/09 11:20:15;;;;;;;8.70;4.90;;;8.10;99.90;;;;;;5105171;28;20028;-50
2024/02/09 11:22:49;;;;;;;8.43;4.15;;;8.20;99.90;;;;;;5105146;28;20046;-50
2024/02/09 11:25:22;;;;;;;9.32;4.15;;;8.20;99.90;;;;;;5104288;28;20062;-50
2024/02/09 11:27:51;;;;;;;10.82;4.22;;;8.30;99.90;;;;;;5105238;28;20028;-50
2024/02/09 11:30:17;;;;;;;7.72;4.10;;;8.30;99.90;;;;;;5103734;28;20265;-50
2024/02/09 11:32:46;;;;;;;7.80;4.07;;;8.30;99.90;;;;;;5105047;28;20296;-49
2024/02/09 11:35:13;;;;;;;9.65;4.63;;;8.30;99.90;;;;;;5104851;28;20048;-50
2024/02/09 11:37:45;;;;;;;10.48;3.47;;;8.40;99.90;;;;;;5103857;28;20024;-49
2024/02/09 11:40:12;;;;;;;8.88;4.45;;;8.40;99.90;;;;;;5103961;28;20036;-48
2024/02/09 11:42:38;;;;;;;15.98;8.25;;;8.40;99.90;;;;;;5103781;28;20087;-50
2024/02/09 11:45:04;;;;;;;12.48;5.25;;;8.40;99.90;;;;;;5104588;28;20056;-49
2024/02/09 11:47:31;;;;;;;10.65;5.15;;;8.50;99.90;;;;;;5104401;28;20024;-49
2024/02/09 11:49:57;;;;;;;9.07;4.10;;;8.60;99.90;;;;;;5106036;28;20024;-50
2024/02/09 11:52:23;;;;;;;12.98;5.18;;;8.70;99.90;;;;;;5108978;28;20051;-50
2024/02/09 11:54:48;;;;;;;10.13;5.03;;;8.70;99.90;;;;;;5107806;28;20040;-50
2024/02/09 11:57:14;;;;;;;10.27;5.10;;;8.80;99.90;;;;;;5108804;28;20081;-50
2024/02/09 11:59:40;;;;;;;10.35;4.68;;;8.90;99.90;;;;;;5107747;28;20054;-48
2024/02/09 12:02:09;;;;;;;8.82;4.60;;;8.90;99.90;;;;;;5108996;28;20114;-49
2024/02/09 12:04:34;;;;;;;11.45;5.30;;;8.90;99.90;;;;;;5107719;28;20065;-50
2024/02/09 12:07:00;;;;;;;11.52;5.20;;;8.90;99.90;;;;;;5109111;28;20262;-51
2024/02/09 12:09:27;;;;;;;10.38;4.50;;;8.90;99.90;;;;;;5108795;28;20091;-50
2024/02/09 12:11:53;;;;;;;10.32;4.10;;;9.00;99.90;;;;;;5108462;28;20158;-51
2024/02/09 12:14:18;;;;;;;12.75;5.10;;;9.00;99.90;;;;;;5108461;28;20035;-50
2024/02/09 12:16:45;;;;;;;16.60;7.35;;;9.00;99.90;;;;;;5107764;28;20071;-50
2024/02/09 12:19:10;;;;;;;15.63;6.55;;;9.00;99.90;;;;;;5107336;28;20100;-49
2024/02/09 12:21:36;;;;;;;13.02;5.97;;;9.00;99.90;;;;;;5107748;28;20039;-49
2024/02/09 12:24:02;;;;;;;12.32;5.60;;;9.00;99.90;;;;;;5108381;28;20044;-50
2024/02/09 12:26:27;;;;;;;12.93;8.18;;;9.00;99.90;;;;;;5107269;28;20024;-50
2024/02/09 12:28:53;;;;;;;9.80;4.85;;;9.00;99.90;;;;;;5108017;28;20020;-50
2024/02/09 12:31:19;;;;;;;12.45;5.07;;;9.00;99.90;;;;;;5107215;28;20105;-50
2024/02/09 12:33:48;;;;;;;15.25;8.63;;;9.00;99.90;;;;;;5107726;28;20281;-51
2024/02/09 12:36:15;;;;;;;13.57;5.68;;;9.00;99.90;;;;;;5106706;28;20024;-50
2024/02/09 12:38:41;;;;;;;10.77;5.28;;;8.90;99.90;;;;;;5107860;28;20044;-50
2024/02/09 12:41:07;;;;;;;9.70;5.60;;;8.90;99.90;;;;;;5107772;28;20024;-47
2024/02/09 12:43:33;;;;;;;15.65;7.25;;;8.80;99.90;;;;;;5107655;28;20030;-48
2024/02/09 12:46:00;;;;;;;22.85;11.50;;;8.80;99.90;;;;;;5107620;28;20024;-47
2024/02/09 12:48:28;;;;;;;18.73;10.45;;;8.90;99.90;;;;;;5106425;28;20028;-48
2024/02/09 12:50:57;;;;;;;15.70;8.75;;;8.90;99.90;;;;;;5107660;28;20151;-48
2024/02/09 12:53:24;;;;;;;14.00;6.82;;;8.80;99.90;;;;;;5107853;28;20107;-49
2024/02/09 12:55:49;;;;;;;12.05;6.00;;;8.80;99.90;;;;;;5107239;28;20087;-50
2024/02/09 12:58:22;;;;;;;14.90;7.93;;;8.80;99.90;;;;;;5107600;28;20039;-50
2024/02/09 13:00:49;;;;;;;16.08;6.93;;;8.80;99.90;;;;;;5107337;28;20059;-50
2024/02/09 13:03:14;;;;;;;10.70;5.85;;;8.80;99.90;;;;;;5107001;28;20087;-50
2024/02/09 13:05:41;;;;;;;12.68;10.43;;;8.90;99.90;;;;;;5106151;28;20024;-47
2024/02/09 13:08:09;;;;;;;11.73;5.88;;;8.90;99.90;;;;;;5107100;28;20092;-50
2024/02/09 13:10:35;;;;;;;15.32;11.40;;;9.00;99.90;;;;;;5106185;28;20091;-50
2024/02/09 13:13:06;;;;;;;9.05;5.60;;;9.00;99.90;;;;;;5107395;28;20262;-50
2024/02/09 13:15:35;;;;;;;10.98;4.90;;;9.00;99.90;;;;;;5106047;28;20070;-50
2024/02/09 13:18:02;;;;;;;9.90;5.88;;;9.00;99.90;;;;;;5106973;28;20202;-50
2024/02/09 13:20:28;;;;;;;13.07;5.50;;;9.10;99.90;;;;;;5107124;28;20024;-51
2024/02/09 13:22:57;;;;;;;8.57;4.55;;;9.00;99.90;;;;;;5106940;28;20066;-48
2024/02/09 13:25:23;;;;;;;8.90;5.57;;;9.10;99.90;;;;;;5106988;28;20079;-50
2024/02/09 13:27:52;;;;;;;9.70;5.43;;;9.10;99.90;;;;;;5105937;28;20085;-50
2024/02/09 13:30:19;;;;;;;9.32;4.60;;;9.20;99.90;;;;;;5106024;28;20077;-51
2024/02/09 13:32:47;;;;;;;11.15;5.35;;;9.20;99.90;;;;;;5105787;28;20020;-50
2024/02/09 13:35:17;;;;;;;9.07;5.10;;;9.30;99.90;;;;;;5106455;28;20039;-50
2024/02/09 13:37:44;;;;;;;21.95;9.98;;;9.20;99.90;;;;;;5106994;28;20031;-50
2024/02/09 13:40:15;;;;;;;10.38;5.50;;;9.20;99.90;;;;;;5106353;28;20024;-50
2024/02/09 13:42:47;;;;;;;9.07;4.63;;;9.10;99.90;;;;;;5106328;28;20152;-48
2024/02/09 13:45:14;;;;;;;9.93;4.05;;;9.10;99.90;;;;;;5106806;28;20138;-49
2024/02/09 13:47:40;;;;;;;14.00;6.63;;;9.10;99.90;;;;;;5088829;28;20036;-50
2024/02/09 13:50:11;;;;;;;19.73;8.73;;;9.20;99.90;;;;;;5106594;28;20028;-49
2024/02/09 13:52:37;;;;;;;8.05;4.20;;;9.10;99.90;;;;;;5106546;28;20032;-48
2024/02/09 13:55:03;;;;;;;9.55;4.25;;;9.20;99.90;;;;;;5106614;28;20020;-50
2024/02/09 13:57:29;;;;;;;14.52;7.80;;;9.10;99.90;;;;;;5105920;28;20028;-51
2024/02/09 13:59:57;;;;;;;11.85;5.57;;;9.20;99.90;;;;;;5106265;28;20110;-47
2024/02/09 14:02:23;;;;;;;8.73;4.30;;;9.10;99.90;;;;;;5106041;28;20055;-50
2024/02/09 14:04:48;;;;;;;11.00;5.68;;;9.10;99.90;;;;;;5106229;28;20081;-50
2024/02/09 14:07:14;;;;;;;8.40;4.35;;;9.10;99.90;;;;;;5106036;28;20055;-50
2024/02/09 14:09:40;;;;;;;10.65;6.30;;;9.10;99.90;;;;;;5106191;28;20131;-51
2024/02/09 14:12:07;;;;;;;10.60;5.53;;;9.10;99.90;;;;;;5106148;28;20036;-50
2024/02/09 14:14:32;;;;;;;10.93;6.00;;;9.10;99.90;;;;;;5106451;28;20046;-51
2024/02/09 14:17:01;;;;;;;9.05;5.00;;;9.00;99.90;;;;;;5106094;28;20074;-49
2024/02/09 14:19:26;;;;;;;7.68;3.20;;;9.10;99.90;;;;;;5105787;28;20241;-50
2024/02/09 14:21:52;;;;;;;9.15;4.22;;;9.00;99.90;;;;;;5106041;28;20047;-50
2024/02/09 14:24:18;;;;;;;7.35;3.33;;;9.10;99.90;;;;;;5087871;28;20043;-50
2024/02/09 14:26:44;;;;;;;6.00;3.28;;;9.10;99.90;;;;;;5106157;28;20140;-51
2024/02/09 14:29:13;;;;;;;6.70;3.67;;;9.10;99.90;;;;;;5105524;28;20020;-51
2024/02/09 14:31:38;;;;;;;7.60;3.63;;;9.10;99.90;;;;;;5105719;28;20103;-51
2024/02/09 14:34:05;;;;;;;6.53;3.67;;;9.10;99.90;;;;;;5106436;28;20039;-49
2024/02/09 14:36:31;;;;;;;7.03;3.58;;;9.10;99.90;;;;;;5105919;28;20158;-50
2024/02/09 14:38:56;;;;;;;8.68;4.47;;;9.10;99.90;;;;;;5105661;28;20055;-51